Temryuk, Russia
Current Conditions -  °F | °C
As of 3:30 PM on Wednesday 26 Nov 2014 (Local Time) from URKA Reporting Station
Scattered Clouds Scattered Clouds  
Wind Chill: 21°   Ceiling: Unl
Heat Index: 32°   Visibility: 6mi
Dew Point: 27°   Wind: 18mph
Humidity: 80%   Direction: 60°ENE
Pressure: 30.06"   Gusts: 25mph
Location:  45.27°N, 37.38°E
Report Text: URKA 261230Z 06008G11MPS 9999 FEW010 SCT110 00/M03 Q1018 NOSIGRMK QFE759/1013 SC070
Loading
Personal Weather Stations






























Interactive Weather Map New forecast layout! Learn more

10-Day Weather Forecast

Advertisements
Track Severe Weather on mobile